createdAt,value
2023-01-30T00:11:45.484Z,1.80
2023-01-30T00:15:27.283Z,2.30
2023-01-30T00:19:09.157Z,2.08
2023-01-30T00:35:18.655Z,2.35
2023-01-30T00:39:00.560Z,2.30
2023-01-30T00:43:00.651Z,1.88
2023-01-30T00:47:00.822Z,2.05
2023-01-30T00:50:42.657Z,2.35
2023-01-30T00:54:24.786Z,1.55
2023-01-30T00:58:06.833Z,2.03
2023-01-30T01:01:48.614Z,1.80
2023-01-30T01:05:30.684Z,1.52
2023-01-30T01:09:12.479Z,2.03
2023-01-30T01:12:54.282Z,2.08
2023-01-30T01:16:36.572Z,1.58
2023-01-30T01:20:19.258Z,1.70
2023-01-30T01:24:01.192Z,2.15
2023-01-30T01:27:42.974Z,1.70
2023-01-30T01:31:25.694Z,1.90
2023-01-30T01:35:07.886Z,2.05
2023-01-30T01:38:49.641Z,1.55
2023-01-30T01:42:35.845Z,1.80
2023-01-30T01:46:28.821Z,2.05
2023-01-30T01:50:26.697Z,1.90
2023-01-30T01:54:34.213Z,2.38
2023-01-30T01:58:22.508Z,2.30
2023-01-30T02:02:10.741Z,2.38
2023-01-30T02:05:57.756Z,2.50
2023-01-30T02:09:39.621Z,2.28
2023-01-30T02:13:21.847Z,2.35
2023-01-30T02:17:03.718Z,2.28
2023-01-30T02:21:06.838Z,2.30
2023-01-30T02:25:23.754Z,2.38
2023-01-30T02:29:23.707Z,2.95
2023-01-30T02:33:31.971Z,3.65
2023-01-30T02:37:25.732Z,4.05
2023-01-30T02:41:41.959Z,3.17
2023-01-30T02:45:43.332Z,3.90
2023-01-30T02:49:58.418Z,4.00
2023-01-30T02:53:40.805Z,3.95
2023-01-30T02:57:28.890Z,5.28
2023-01-30T03:01:50.363Z,4.60
2023-01-30T03:05:40.937Z,4.65
2023-01-30T03:09:35.715Z,5.53
2023-01-30T03:13:29.578Z,5.15
2023-01-30T03:17:12.937Z,6.28
2023-01-30T03:20:55.307Z,5.78
2023-01-30T03:28:37.001Z,5.40
2023-01-30T03:32:18.826Z,5.35
2023-01-30T03:36:00.684Z,5.40
2023-01-30T03:39:42.712Z,4.45
2023-01-30T03:43:24.573Z,4.50
2023-01-30T03:47:06.696Z,4.40
2023-01-30T03:50:49.239Z,4.13
2023-01-30T03:54:31.066Z,4.63
2023-01-30T03:58:12.954Z,4.47
2023-01-30T04:01:54.765Z,4.50
2023-01-30T04:05:36.759Z,5.10
2023-01-30T04:09:18.653Z,5.03
2023-01-30T04:13:00.528Z,4.60
2023-01-30T04:16:42.751Z,5.03
2023-01-30T04:20:25.111Z,4.60
2023-01-30T04:24:07.075Z,4.47
2023-01-30T04:27:48.942Z,5.20
2023-01-30T04:31:30.846Z,5.25
2023-01-30T04:35:12.941Z,4.93
2023-01-30T04:38:55.004Z,5.65
2023-01-30T04:42:36.860Z,5.13
2023-01-30T04:46:18.709Z,4.78
2023-01-30T04:50:00.748Z,5.93
2023-01-30T04:53:42.661Z,4.47
2023-01-30T04:57:24.559Z,4.15
2023-01-30T05:01:14.330Z,3.13
2023-01-30T05:04:56.200Z,4.25
2023-01-30T05:08:38.053Z,2.80
2023-01-30T05:12:19.921Z,2.88
2023-01-30T05:16:01.698Z,3.45
2023-01-30T05:19:43.515Z,2.55
2023-01-30T05:23:25.359Z,3.03
2023-01-30T05:27:07.210Z,2.70
2023-01-30T05:30:49.190Z,2.50
2023-01-30T05:34:31.556Z,3.38
2023-01-30T05:38:13.441Z,2.95
2023-01-30T05:41:55.537Z,3.58
2023-01-30T05:45:37.954Z,2.58
2023-01-30T05:49:19.933Z,3.28
2023-01-30T05:53:01.911Z,3.30
2023-01-30T05:56:43.868Z,2.95
2023-01-30T06:00:25.728Z,2.85
2023-01-30T06:04:07.595Z,3.25
2023-01-30T06:07:49.745Z,2.83
2023-01-30T06:11:32.013Z,3.22
2023-01-30T06:15:14.109Z,2.75
2023-01-30T06:18:55.934Z,2.78
2023-01-30T06:22:38.296Z,3.03
2023-01-30T06:26:20.281Z,3.22
2023-01-30T06:30:02.617Z,2.70
2023-01-30T06:33:44.493Z,2.72
2023-01-30T06:37:26.342Z,2.85
2023-01-30T06:41:08.234Z,3.10
2023-01-30T06:44:50.135Z,3.22
2023-01-30T06:48:32.135Z,3.05
2023-01-30T06:52:13.974Z,3.08
2023-01-30T06:55:59.795Z,3.33
2023-01-30T06:59:41.665Z,3.80
2023-01-30T07:03:23.633Z,3.20
2023-01-30T07:07:07.005Z,4.07
2023-01-30T07:10:49.129Z,3.58
2023-01-30T07:14:30.977Z,3.22
2023-01-30T07:18:13.356Z,3.53
2023-01-30T07:21:55.299Z,3.10
2023-01-30T07:25:37.194Z,3.25
2023-01-30T07:29:19.164Z,3.80
2023-01-30T07:33:01.271Z,4.20
2023-01-30T07:36:43.182Z,3.22
2023-01-30T07:40:25.443Z,4.05
2023-01-30T07:44:07.769Z,5.03
2023-01-30T07:47:49.642Z,6.10
2023-01-30T07:51:31.986Z,5.78
2023-01-30T07:55:13.905Z,4.43
2023-01-30T07:58:56.552Z,4.47
2023-01-30T08:02:38.616Z,4.10
2023-01-30T08:06:20.499Z,3.58
2023-01-30T08:10:02.401Z,4.10
2023-01-30T08:13:44.360Z,3.90
2023-01-30T08:17:26.334Z,3.85
2023-01-30T08:21:08.264Z,5.57
2023-01-30T08:24:50.180Z,5.50
2023-01-30T08:28:32.467Z,4.93
2023-01-30T08:32:15.641Z,4.10
2023-01-30T08:35:57.765Z,3.90
2023-01-30T08:39:39.598Z,4.22
2023-01-30T08:43:21.557Z,4.30
2023-01-30T08:47:03.512Z,4.35
2023-01-30T08:50:45.325Z,4.20
2023-01-30T08:54:27.227Z,3.85
2023-01-30T08:58:09.065Z,4.00
2023-01-30T09:01:50.916Z,3.33
2023-01-30T09:05:32.905Z,3.13
2023-01-30T09:09:14.729Z,4.10
2023-01-30T09:12:56.669Z,3.80
2023-01-30T09:16:38.607Z,3.80
2023-01-30T09:20:20.951Z,3.53
2023-01-30T09:24:02.998Z,3.47
2023-01-30T09:27:48.050Z,4.57
2023-01-30T09:31:30.215Z,3.90
2023-01-30T09:35:12.446Z,4.57
2023-01-30T09:38:54.434Z,4.65
2023-01-30T09:42:43.848Z,3.88
2023-01-30T09:46:25.660Z,4.13
2023-01-30T09:50:36.793Z,3.70
2023-01-30T09:54:25.329Z,3.40
2023-01-30T09:58:18.127Z,3.90
2023-01-30T10:02:47.036Z,7.07
2023-01-30T10:06:29.930Z,4.47
2023-01-30T10:10:22.249Z,3.85
2023-01-30T10:14:22.386Z,3.55
2023-01-30T10:18:20.398Z,3.75
2023-01-30T10:22:26.167Z,4.00
2023-01-30T10:26:13.363Z,4.38
2023-01-30T10:30:00.401Z,4.40
2023-01-30T10:33:50.540Z,3.45
2023-01-30T10:38:07.955Z,4.15
2023-01-30T10:41:58.787Z,3.85
2023-01-30T10:45:46.696Z,3.45
2023-01-30T10:49:41.920Z,4.22
2023-01-30T10:53:38.906Z,4.70
2023-01-30T10:57:43.421Z,3.78
2023-01-30T11:01:46.666Z,3.55
2023-01-30T11:05:39.659Z,4.43
2023-01-30T11:09:23.734Z,3.60
2023-01-30T11:13:19.707Z,3.20
2023-01-30T11:17:02.645Z,3.08
2023-01-30T11:20:51.552Z,3.55
2023-01-30T11:24:40.687Z,3.63
2023-01-30T11:28:23.440Z,2.85
2023-01-30T11:32:12.161Z,2.60
2023-01-30T11:36:15.894Z,2.65
2023-01-30T11:39:58.184Z,3.38
2023-01-30T11:43:40.285Z,3.22
2023-01-30T11:47:25.743Z,2.90
2023-01-30T11:51:09.877Z,2.47
2023-01-30T11:54:54.615Z,3.00
2023-01-30T11:58:39.837Z,3.05
2023-01-30T12:02:26.210Z,3.30
2023-01-30T12:06:08.143Z,2.60
2023-01-30T12:09:51.345Z,3.63
2023-01-30T12:13:41.867Z,2.65
2023-01-30T12:17:47.114Z,2.85
2023-01-30T12:21:38.722Z,3.40
2023-01-30T12:25:31.634Z,2.90
2023-01-30T12:29:29.903Z,3.85
2023-01-30T12:37:09.984Z,2.55
2023-01-30T12:41:22.208Z,4.18
2023-01-30T12:45:22.771Z,3.25
2023-01-30T12:49:14.742Z,3.20
2023-01-30T12:53:15.025Z,3.00
2023-01-30T12:57:26.683Z,3.97
2023-01-30T13:01:25.237Z,2.90
2023-01-30T13:05:23.529Z,3.17
2023-01-30T13:09:17.603Z,3.22
2023-01-30T13:12:59.387Z,4.10
2023-01-30T13:17:00.823Z,2.88
2023-01-30T13:21:00.604Z,3.88
2023-01-30T13:24:52.968Z,4.55
2023-01-30T13:28:41.475Z,2.85
2023-01-30T13:32:43.272Z,3.95
2023-01-30T13:36:33.083Z,2.92
2023-01-30T13:40:23.007Z,4.25
2023-01-30T13:44:32.742Z,3.10
2023-01-30T13:48:14.611Z,2.88
2023-01-30T13:56:03.064Z,3.80
2023-01-30T13:59:55.831Z,4.80
2023-01-30T14:03:38.036Z,3.33
2023-01-30T14:07:49.054Z,3.65
2023-01-30T14:11:58.062Z,3.75
2023-01-30T14:15:51.389Z,4.07
2023-01-30T14:19:50.248Z,2.75
2023-01-30T14:23:34.888Z,2.92
2023-01-30T14:27:27.441Z,3.70
2023-01-30T14:31:09.469Z,3.47
2023-01-30T14:35:20.051Z,3.20
2023-01-30T14:39:40.072Z,3.17
2023-01-30T14:43:36.733Z,3.10
2023-01-30T14:47:33.520Z,3.00
2023-01-30T14:51:48.345Z,3.35
2023-01-30T14:55:30.880Z,3.10
2023-01-30T14:59:33.145Z,3.53
2023-01-30T15:03:20.249Z,3.45
2023-01-30T15:07:10.382Z,2.93
2023-01-30T15:14:45.997Z,3.58
2023-01-30T15:18:51.464Z,3.28
2023-01-30T15:22:39.194Z,3.00
2023-01-30T15:26:58.594Z,3.25
2023-01-30T15:34:34.165Z,3.00
2023-01-30T15:38:34.783Z,2.90
2023-01-30T15:42:16.803Z,3.28
2023-01-30T15:46:23.162Z,3.47
2023-01-30T15:50:08.640Z,3.10
2023-01-30T15:53:50.956Z,3.20
2023-01-30T15:57:38.747Z,3.83
2023-01-30T16:01:22.784Z,4.72
2023-01-30T16:05:06.284Z,3.75
2023-01-30T16:09:01.399Z,4.30
2023-01-30T16:12:43.433Z,4.45
2023-01-30T16:16:26.064Z,3.40
2023-01-30T16:20:14.501Z,3.85
2023-01-30T16:24:25.089Z,2.95
2023-01-30T16:28:07.390Z,3.72
2023-01-30T16:31:51.493Z,3.60
2023-01-30T16:35:34.396Z,3.60
2023-01-30T16:39:37.047Z,3.67
2023-01-30T16:43:19.483Z,4.50
2023-01-30T16:47:06.052Z,3.42
2023-01-30T16:50:50.590Z,3.90
2023-01-30T16:54:35.082Z,3.70
2023-01-30T16:58:17.942Z,3.95
2023-01-30T17:02:02.221Z,5.03
2023-01-30T17:05:47.172Z,9.45
2023-01-30T17:09:41.731Z,9.43
2023-01-30T17:13:43.090Z,9.45
2023-01-30T17:17:24.992Z,4.07
2023-01-30T17:21:13.028Z,5.43
2023-01-30T17:28:41.811Z,5.00
2023-01-30T17:32:23.812Z,4.95
2023-01-30T17:36:15.144Z,4.70
2023-01-30T17:39:57.021Z,4.38
2023-01-30T17:43:38.921Z,4.20
2023-01-30T17:47:21.917Z,4.57
2023-01-30T17:51:03.982Z,4.70
2023-01-30T17:54:45.855Z,4.60
2023-01-30T17:58:27.794Z,3.95
2023-01-30T18:02:10.634Z,4.68
2023-01-30T18:05:52.547Z,4.03
2023-01-30T18:09:34.424Z,3.90
2023-01-30T18:13:16.240Z,4.07
2023-01-30T18:17:00.708Z,5.20
2023-01-30T18:20:42.621Z,4.53
2023-01-30T18:24:24.900Z,4.47
2023-01-30T18:28:10.343Z,3.65
2023-01-30T18:31:52.709Z,4.18
2023-01-30T18:35:34.627Z,4.50
2023-01-30T18:39:16.495Z,3.90
2023-01-30T18:43:01.026Z,5.13
2023-01-30T18:46:45.219Z,4.03
2023-01-30T18:50:27.204Z,4.45
2023-01-30T18:54:09.038Z,4.07
2023-01-30T18:57:51.443Z,3.70
2023-01-30T19:01:36.752Z,5.05
2023-01-30T19:05:18.670Z,5.22
2023-01-30T19:09:00.643Z,6.07
2023-01-30T19:13:01.666Z,8.45
2023-01-30T19:16:43.586Z,6.93
2023-01-30T19:20:26.305Z,8.52
2023-01-30T19:24:14.116Z,8.82
2023-01-30T19:27:56.866Z,9.00
2023-01-30T19:31:39.025Z,9.90
2023-01-30T19:35:21.300Z,9.80
2023-01-30T19:39:06.206Z,10.20
2023-01-30T19:42:48.445Z,16.40
2023-01-30T19:46:31.161Z,18.05
2023-01-30T19:50:13.459Z,17.13
2023-01-30T19:53:58.260Z,17.92
2023-01-30T19:57:40.136Z,22.58
2023-01-30T20:01:24.309Z,20.65
2023-01-30T20:05:06.754Z,11.95
2023-01-30T20:08:53.479Z,14.95
2023-01-30T20:12:35.791Z,16.70
2023-01-30T20:16:20.784Z,17.30
2023-01-30T20:20:03.132Z,11.95
2023-01-30T20:23:46.670Z,16.90
2023-01-30T20:27:28.619Z,18.30
2023-01-30T20:31:24.563Z,18.27
2023-01-30T20:35:07.012Z,21.77
2023-01-30T20:38:50.407Z,21.98
2023-01-30T20:42:32.208Z,12.93
2023-01-30T20:46:16.770Z,24.27
2023-01-30T20:49:58.639Z,9.15
2023-01-30T20:53:46.382Z,6.28
2023-01-30T20:57:28.173Z,12.45
2023-01-30T21:01:12.754Z,11.85
2023-01-30T21:04:54.676Z,9.98
2023-01-30T21:08:39.399Z,9.48
2023-01-30T21:12:23.844Z,8.82
2023-01-30T21:16:08.480Z,7.88
2023-01-30T21:19:50.348Z,13.05
2023-01-30T21:23:33.088Z,11.38
2023-01-30T21:27:14.991Z,16.42
2023-01-30T21:30:56.861Z,9.63
2023-01-30T21:34:39.166Z,9.32
2023-01-30T21:38:40.188Z,9.68
2023-01-30T21:42:40.845Z,10.85
2023-01-30T21:46:22.859Z,7.78
2023-01-30T21:50:05.133Z,8.48
2023-01-30T21:53:46.992Z,7.50
2023-01-30T21:57:28.832Z,8.77
2023-01-30T22:01:10.714Z,5.65
2023-01-30T22:04:52.607Z,6.32
2023-01-30T22:08:37.633Z,9.77
2023-01-30T22:12:19.434Z,8.27
2023-01-30T22:16:03.467Z,9.90
2023-01-30T22:19:45.455Z,7.07
2023-01-30T22:23:35.242Z,4.97
2023-01-30T22:27:17.163Z,5.28
2023-01-30T22:31:09.856Z,5.45
2023-01-30T22:34:51.875Z,8.68
2023-01-30T22:38:34.653Z,6.40
2023-01-30T22:42:16.738Z,13.95
2023-01-30T22:46:06.898Z,6.93
2023-01-30T22:49:49.226Z,13.60
2023-01-30T22:53:32.957Z,12.25
2023-01-30T22:57:14.922Z,9.23
2023-01-30T23:01:06.284Z,6.03
2023-01-30T23:04:50.586Z,5.40
2023-01-30T23:08:34.759Z,6.50
2023-01-30T23:12:35.662Z,6.60
2023-01-30T23:16:20.876Z,5.30
2023-01-30T23:20:03.094Z,5.45
2023-01-30T23:23:45.567Z,5.68
2023-01-30T23:27:27.413Z,5.85
2023-01-30T23:31:12.383Z,6.65
2023-01-30T23:34:54.663Z,5.10
2023-01-30T23:38:37.689Z,6.47
2023-01-30T23:42:19.865Z,4.93
2023-01-30T23:46:31.073Z,5.00
2023-01-30T23:50:12.930Z,6.38
2023-01-30T23:53:55.493Z,5.13
2023-01-30T23:57:37.536Z,4.35
